createdAt,value
2022-07-29T00:01:50.727Z,2.08
2022-07-29T00:04:17.612Z,1.80
2022-07-29T00:06:44.423Z,1.40
2022-07-29T00:09:10.878Z,1.80
2022-07-29T00:11:37.290Z,1.35
2022-07-29T00:14:03.806Z,1.45
2022-07-29T00:16:30.399Z,1.38
2022-07-29T00:19:00.557Z,1.85
2022-07-29T00:21:28.490Z,1.52
2022-07-29T00:23:54.928Z,1.55
2022-07-29T00:26:21.362Z,1.20
2022-07-29T00:28:47.764Z,1.42
2022-07-29T00:31:14.253Z,1.40
2022-07-29T00:33:40.698Z,1.30
2022-07-29T00:36:07.223Z,1.10
2022-07-29T00:38:33.690Z,1.52
2022-07-29T00:41:00.150Z,1.27
2022-07-29T00:43:26.635Z,1.45
2022-07-29T00:45:53.435Z,1.15
2022-07-29T00:48:19.832Z,1.33
2022-07-29T00:50:46.248Z,1.90
2022-07-29T00:53:12.899Z,0.98
2022-07-29T00:55:39.312Z,1.23
2022-07-29T00:58:05.911Z,0.95
2022-07-29T01:00:32.379Z,2.15
2022-07-29T01:02:59.383Z,1.30
2022-07-29T01:05:50.751Z,1.58
2022-07-29T01:08:15.553Z,1.48
2022-07-29T01:10:42.879Z,1.58
2022-07-29T01:13:10.187Z,1.38
2022-07-29T01:15:49.026Z,1.30
2022-07-29T01:18:23.778Z,1.35
2022-07-29T01:21:26.654Z,1.55
2022-07-29T01:24:18.591Z,1.45
2022-07-29T01:27:11.579Z,1.67
2022-07-29T01:29:46.494Z,1.42
2022-07-29T01:32:28.755Z,1.20
2022-07-29T01:34:59.865Z,1.30
2022-07-29T01:37:27.434Z,1.33
2022-07-29T01:39:56.509Z,1.63
2022-07-29T01:42:32.764Z,1.33
2022-07-29T01:45:21.473Z,1.67
2022-07-29T01:47:59.443Z,1.67
2022-07-29T01:50:34.658Z,1.30
2022-07-29T01:53:03.557Z,1.48
2022-07-29T01:55:32.603Z,1.50
2022-07-29T01:58:00.084Z,1.40
2022-07-29T02:00:27.286Z,1.60
2022-07-29T02:02:54.859Z,1.65
2022-07-29T02:05:23.151Z,1.48
2022-07-29T02:07:50.512Z,1.33
2022-07-29T02:10:19.369Z,1.38
2022-07-29T02:12:52.543Z,1.33
2022-07-29T02:15:19.866Z,1.60
2022-07-29T02:17:50.426Z,1.38
2022-07-29T02:20:17.133Z,1.55
2022-07-29T02:22:45.171Z,1.30
2022-07-29T02:25:13.736Z,1.40
2022-07-29T02:27:41.504Z,1.50
2022-07-29T02:30:08.559Z,1.60
2022-07-29T02:32:39.053Z,1.55
2022-07-29T02:35:08.248Z,1.60
2022-07-29T02:37:34.933Z,2.30
2022-07-29T02:40:01.442Z,2.03
2022-07-29T02:42:28.881Z,1.73
2022-07-29T02:44:55.828Z,1.80
2022-07-29T02:47:31.746Z,1.65
2022-07-29T02:50:15.001Z,1.75
2022-07-29T02:52:45.415Z,1.63
2022-07-29T02:55:19.916Z,1.73
2022-07-29T02:57:57.514Z,1.70
2022-07-29T03:00:28.339Z,1.77
2022-07-29T03:02:57.262Z,2.85
2022-07-29T03:05:23.866Z,1.63
2022-07-29T03:07:56.570Z,1.63
2022-07-29T03:10:23.702Z,1.95
2022-07-29T03:12:50.653Z,1.52
2022-07-29T03:15:17.276Z,1.60
2022-07-29T03:17:44.208Z,1.67
2022-07-29T03:20:12.901Z,2.42
2022-07-29T03:22:44.317Z,2.10
2022-07-29T03:25:12.110Z,2.25
2022-07-29T03:27:38.533Z,1.70
2022-07-29T03:30:06.128Z,1.90
2022-07-29T03:32:35.471Z,1.70
2022-07-29T03:35:02.033Z,1.70
2022-07-29T03:37:28.607Z,1.50
2022-07-29T03:39:57.750Z,1.90
2022-07-29T03:42:34.086Z,1.77
2022-07-29T03:45:03.273Z,2.10
2022-07-29T03:47:50.120Z,1.85
2022-07-29T03:50:20.136Z,1.90
2022-07-29T03:52:46.783Z,2.10
2022-07-29T03:55:13.844Z,2.10
2022-07-29T03:57:41.632Z,2.30
2022-07-29T04:00:09.380Z,2.05
2022-07-29T04:02:36.794Z,2.05
2022-07-29T04:05:03.491Z,1.95
2022-07-29T04:07:30.665Z,1.90
2022-07-29T04:09:57.082Z,1.73
2022-07-29T04:12:23.934Z,1.65
2022-07-29T04:14:51.078Z,1.80
2022-07-29T04:17:17.819Z,2.10
2022-07-29T04:19:44.223Z,1.95
2022-07-29T04:22:10.686Z,1.73
2022-07-29T04:24:37.147Z,1.55
2022-07-29T04:27:03.587Z,1.60
2022-07-29T04:29:29.989Z,1.80
2022-07-29T04:31:56.413Z,1.90
2022-07-29T04:34:22.824Z,1.75
2022-07-29T04:36:54.470Z,2.10
2022-07-29T04:39:23.185Z,2.67
2022-07-29T04:41:51.032Z,2.63
2022-07-29T04:44:19.414Z,2.22
2022-07-29T04:46:46.327Z,2.13
2022-07-29T04:49:12.825Z,2.42
2022-07-29T04:51:39.365Z,1.63
2022-07-29T04:54:05.792Z,2.13
2022-07-29T04:56:32.285Z,2.55
2022-07-29T04:58:58.706Z,2.05
2022-07-29T05:01:25.182Z,1.98
2022-07-29T05:03:53.103Z,1.67
2022-07-29T05:06:21.348Z,1.77
2022-07-29T05:08:47.777Z,2.03
2022-07-29T05:11:16.946Z,1.77
2022-07-29T05:13:47.040Z,2.20
2022-07-29T05:16:14.348Z,1.75
2022-07-29T05:18:40.997Z,1.80
2022-07-29T05:21:07.512Z,1.88
2022-07-29T05:23:34.085Z,2.10
2022-07-29T05:26:00.516Z,1.85
2022-07-29T05:28:26.908Z,2.22
2022-07-29T05:30:53.409Z,1.85
2022-07-29T05:33:35.271Z,1.98
2022-07-29T05:36:09.193Z,2.22
2022-07-29T05:38:36.431Z,2.30
2022-07-29T05:41:03.144Z,1.95
2022-07-29T05:43:29.883Z,1.75
2022-07-29T05:45:56.946Z,2.60
2022-07-29T05:48:23.444Z,2.40
2022-07-29T05:50:49.907Z,2.60
2022-07-29T05:53:19.480Z,3.20
2022-07-29T05:55:47.437Z,1.73
2022-07-29T05:58:13.842Z,1.65
2022-07-29T06:00:40.815Z,1.50
2022-07-29T06:03:07.201Z,1.75
2022-07-29T06:05:33.647Z,2.10
2022-07-29T06:08:00.070Z,1.88
2022-07-29T06:10:26.922Z,1.73
2022-07-29T06:12:53.776Z,1.83
2022-07-29T06:15:20.365Z,1.60
2022-07-29T06:18:00.597Z,1.80
2022-07-29T06:20:30.968Z,1.83
2022-07-29T06:22:57.991Z,1.77
2022-07-29T06:25:24.459Z,1.58
2022-07-29T06:27:50.855Z,1.50
2022-07-29T06:30:17.274Z,2.97
2022-07-29T06:32:43.675Z,2.25
2022-07-29T06:35:37.847Z,2.50
2022-07-29T06:37:56.704Z,2.83
2022-07-29T06:40:44.811Z,2.72
2022-07-29T06:43:11.703Z,2.33
2022-07-29T06:45:39.441Z,2.75
2022-07-29T06:48:06.048Z,2.70
2022-07-29T06:50:32.656Z,2.13
2022-07-29T06:52:59.090Z,1.95
2022-07-29T06:55:25.697Z,2.13
2022-07-29T06:57:52.279Z,1.98
2022-07-29T07:00:18.728Z,1.50
2022-07-29T07:02:45.178Z,1.60
2022-07-29T07:05:11.646Z,1.70
2022-07-29T07:07:38.036Z,3.08
2022-07-29T07:10:04.829Z,1.80
2022-07-29T07:12:31.233Z,2.58
2022-07-29T07:14:57.641Z,1.38
2022-07-29T07:17:24.068Z,1.30
2022-07-29T07:19:50.460Z,2.10
2022-07-29T07:22:16.881Z,1.50
2022-07-29T07:24:43.281Z,1.70
2022-07-29T07:27:09.724Z,1.55
2022-07-29T07:29:36.329Z,1.52
2022-07-29T07:32:03.202Z,1.60
2022-07-29T07:34:30.975Z,1.58
2022-07-29T07:36:57.417Z,1.80
2022-07-29T07:39:23.830Z,1.80
2022-07-29T07:41:50.261Z,1.70
2022-07-29T07:44:17.216Z,2.20
2022-07-29T07:46:45.777Z,1.33
2022-07-29T07:49:12.472Z,2.15
2022-07-29T07:51:39.528Z,1.88
2022-07-29T07:54:05.967Z,1.60
2022-07-29T07:56:35.388Z,1.73
2022-07-29T07:59:02.101Z,2.10
2022-07-29T08:01:28.856Z,3.08
2022-07-29T08:03:55.294Z,1.63
2022-07-29T08:06:21.761Z,1.92
2022-07-29T08:08:48.274Z,2.45
2022-07-29T08:11:15.456Z,1.70
2022-07-29T08:13:41.907Z,1.75
2022-07-29T08:16:16.343Z,1.67
2022-07-29T08:18:44.461Z,1.58
2022-07-29T08:21:11.207Z,1.75
2022-07-29T08:23:50.579Z,1.65
2022-07-29T08:26:21.728Z,1.85
2022-07-29T08:28:51.142Z,1.67
2022-07-29T08:31:17.716Z,1.40
2022-07-29T08:33:44.207Z,1.38
2022-07-29T08:36:10.642Z,1.60
2022-07-29T08:38:37.047Z,2.15
2022-07-29T08:41:03.572Z,2.88
2022-07-29T08:43:30.037Z,2.10
2022-07-29T08:45:56.495Z,1.95
2022-07-29T08:48:23.748Z,1.70
2022-07-29T08:50:53.884Z,1.77
2022-07-29T08:53:20.495Z,1.98
2022-07-29T08:55:50.363Z,1.75
2022-07-29T08:58:17.883Z,2.50
2022-07-29T09:00:53.433Z,2.65
2022-07-29T09:03:24.681Z,2.80
2022-07-29T09:05:52.020Z,3.45
2022-07-29T09:08:18.701Z,2.83
2022-07-29T09:10:45.659Z,2.13
2022-07-29T09:13:12.338Z,2.10
2022-07-29T09:15:38.732Z,2.05
2022-07-29T09:18:05.168Z,2.22
2022-07-29T09:20:51.554Z,3.25
2022-07-29T09:23:23.443Z,3.67
2022-07-29T09:25:51.111Z,3.75
2022-07-29T09:28:17.848Z,4.10
2022-07-29T09:30:59.114Z,5.07
2022-07-29T09:33:32.460Z,4.53
2022-07-29T09:36:07.500Z,3.47
2022-07-29T09:38:34.889Z,2.47
2022-07-29T09:41:05.790Z,2.40
2022-07-29T09:43:33.065Z,2.13
2022-07-29T09:46:12.890Z,2.00
2022-07-29T09:48:39.473Z,2.08
2022-07-29T09:51:07.335Z,2.08
2022-07-29T09:53:35.548Z,2.60
2022-07-29T09:56:02.543Z,3.40
2022-07-29T09:58:29.075Z,4.03
2022-07-29T10:00:56.310Z,3.67
2022-07-29T10:03:23.785Z,5.60
2022-07-29T10:06:10.533Z,3.38
2022-07-29T10:08:37.585Z,2.92
2022-07-29T10:11:12.384Z,3.47
2022-07-29T10:13:39.693Z,3.83
2022-07-29T10:16:06.807Z,3.92
2022-07-29T10:18:33.660Z,3.80
2022-07-29T10:21:02.013Z,3.75
2022-07-29T10:23:29.357Z,5.03
2022-07-29T10:26:13.029Z,5.20
2022-07-29T10:28:39.449Z,4.38
2022-07-29T10:31:07.739Z,5.43
2022-07-29T10:33:53.519Z,5.00
2022-07-29T10:36:25.860Z,4.78
2022-07-29T10:39:03.344Z,4.85
2022-07-29T10:41:51.491Z,4.68
2022-07-29T10:44:23.178Z,4.22
2022-07-29T10:46:51.545Z,3.80
2022-07-29T10:49:19.438Z,3.60
2022-07-29T10:52:06.093Z,3.70
2022-07-29T10:54:47.147Z,4.18
2022-07-29T10:57:14.025Z,4.65
2022-07-29T10:59:41.305Z,4.38
2022-07-29T11:02:42.758Z,5.53
2022-07-29T11:07:46.168Z,4.80
2022-07-29T11:10:16.425Z,4.80
2022-07-29T11:12:42.835Z,4.85
2022-07-29T11:15:18.095Z,5.50
2022-07-29T11:17:59.475Z,5.13
2022-07-29T11:22:59.842Z,5.47
2022-07-29T11:25:42.514Z,4.88
2022-07-29T11:28:22.286Z,5.13
2022-07-29T11:30:53.176Z,5.05
2022-07-29T11:33:54.730Z,4.70
2022-07-29T11:36:19.920Z,4.65
2022-07-29T11:39:26.903Z,4.65
2022-07-29T11:42:32.643Z,4.50
2022-07-29T11:45:08.492Z,4.40
2022-07-29T11:47:48.922Z,4.28
2022-07-29T11:50:37.647Z,4.00
2022-07-29T11:53:13.120Z,4.10
2022-07-29T11:55:51.044Z,4.10
2022-07-29T11:58:25.069Z,4.22
2022-07-29T12:00:52.659Z,3.83
2022-07-29T12:03:32.776Z,3.90
2022-07-29T12:06:02.134Z,4.65
2022-07-29T12:08:28.688Z,4.07
2022-07-29T12:10:55.119Z,3.65
2022-07-29T12:13:22.781Z,3.88
2022-07-29T12:16:03.953Z,3.42
2022-07-29T12:18:30.522Z,3.55
2022-07-29T12:21:04.507Z,3.92
2022-07-29T12:23:34.746Z,4.00
2022-07-29T12:26:04.981Z,3.55
2022-07-29T12:28:38.473Z,3.55
2022-07-29T12:31:06.079Z,4.07
2022-07-29T12:33:35.803Z,3.47
2022-07-29T12:36:07.626Z,3.80
2022-07-29T12:38:36.093Z,5.03
2022-07-29T12:41:04.560Z,4.65
2022-07-29T12:43:31.348Z,4.65
2022-07-29T12:45:58.261Z,5.18
2022-07-29T12:48:35.560Z,4.95
2022-07-29T12:51:03.833Z,5.22
2022-07-29T12:53:31.016Z,5.03
2022-07-29T12:56:00.447Z,5.45
2022-07-29T12:58:51.089Z,5.38
2022-07-29T13:01:20.237Z,5.43
2022-07-29T13:03:57.052Z,5.20
2022-07-29T13:06:37.817Z,5.85
2022-07-29T13:09:19.634Z,5.97
2022-07-29T13:11:51.215Z,5.78
2022-07-29T13:14:37.823Z,6.20
2022-07-29T13:17:14.070Z,6.13
2022-07-29T13:19:45.599Z,5.60
2022-07-29T13:22:15.467Z,5.38
2022-07-29T13:24:54.759Z,4.93
2022-07-29T13:27:23.867Z,5.35
2022-07-29T13:29:53.208Z,5.22
2022-07-29T13:32:28.240Z,5.72
2022-07-29T13:35:00.997Z,6.60
2022-07-29T13:37:30.434Z,6.78
2022-07-29T13:39:57.673Z,6.20
2022-07-29T13:42:24.573Z,6.05
2022-07-29T13:44:52.519Z,5.72
2022-07-29T13:47:22.763Z,5.30
2022-07-29T13:49:59.301Z,5.63
2022-07-29T13:52:25.708Z,5.40
2022-07-29T13:54:52.149Z,6.05
2022-07-29T13:57:18.608Z,5.70
2022-07-29T13:59:46.187Z,6.65
2022-07-29T14:02:15.694Z,6.82
2022-07-29T14:04:42.273Z,6.43
2022-07-29T14:07:08.747Z,5.65
2022-07-29T14:09:40.995Z,4.82
2022-07-29T14:12:08.519Z,5.60
2022-07-29T14:14:36.454Z,5.28
2022-07-29T14:17:04.154Z,4.88
2022-07-29T14:19:32.803Z,4.50
2022-07-29T14:21:59.705Z,4.40
2022-07-29T14:24:26.408Z,3.25
2022-07-29T14:26:52.852Z,3.55
2022-07-29T14:29:19.282Z,4.50
2022-07-29T14:31:45.769Z,3.70
2022-07-29T14:34:12.270Z,3.33
2022-07-29T14:36:38.751Z,3.85
2022-07-29T14:39:05.165Z,3.28
2022-07-29T14:41:31.626Z,3.22
2022-07-29T14:44:01.384Z,3.00
2022-07-29T14:46:28.515Z,2.63
2022-07-29T14:48:55.289Z,3.30
2022-07-29T14:51:21.833Z,3.35
2022-07-29T14:53:48.245Z,3.25
2022-07-29T14:56:35.649Z,3.53
2022-07-29T14:59:01.666Z,3.50
2022-07-29T15:01:28.256Z,3.97
2022-07-29T15:03:59.550Z,3.75
2022-07-29T15:06:26.955Z,3.90
2022-07-29T15:08:53.380Z,3.17
2022-07-29T15:11:19.888Z,3.53
2022-07-29T15:13:46.787Z,4.00
2022-07-29T15:16:13.266Z,3.83
2022-07-29T15:18:39.727Z,3.70
2022-07-29T15:21:07.785Z,3.25
2022-07-29T15:23:36.986Z,5.05
2022-07-29T15:26:04.268Z,3.38
2022-07-29T15:28:30.789Z,3.28
2022-07-29T15:30:57.245Z,3.00
2022-07-29T15:33:24.081Z,3.00
2022-07-29T15:35:50.523Z,2.83
2022-07-29T15:38:17.270Z,2.75
2022-07-29T15:40:44.158Z,2.75
2022-07-29T15:43:10.717Z,3.08
2022-07-29T15:45:40.337Z,2.85
2022-07-29T15:48:08.352Z,2.63
2022-07-29T15:50:34.877Z,2.53
2022-07-29T15:53:01.332Z,3.25
2022-07-29T15:55:27.896Z,3.28
2022-07-29T15:57:59.980Z,3.50
2022-07-29T16:00:27.204Z,3.28
2022-07-29T16:02:53.631Z,2.95
2022-07-29T16:05:20.060Z,3.15
2022-07-29T16:07:46.571Z,3.63
2022-07-29T16:10:13.103Z,3.15
2022-07-29T16:12:39.558Z,3.17
2022-07-29T16:15:09.959Z,2.60
2022-07-29T16:17:37.670Z,2.97
2022-07-29T16:20:05.230Z,2.60
2022-07-29T16:22:31.690Z,2.85
2022-07-29T16:24:58.077Z,3.08
2022-07-29T16:27:35.395Z,3.08
2022-07-29T16:30:05.887Z,3.72
2022-07-29T16:32:32.279Z,3.20
2022-07-29T16:34:58.697Z,3.08
2022-07-29T16:37:25.124Z,3.30
2022-07-29T16:39:55.328Z,3.10
2022-07-29T16:42:44.371Z,2.53
2022-07-29T16:45:08.827Z,3.53
2022-07-29T16:47:36.020Z,3.28
2022-07-29T16:50:02.524Z,2.88
2022-07-29T16:52:28.946Z,3.22
2022-07-29T16:54:55.348Z,3.30
2022-07-29T16:57:21.940Z,3.55
2022-07-29T16:59:50.829Z,3.30
2022-07-29T17:02:17.726Z,3.13
2022-07-29T17:04:44.208Z,2.70
2022-07-29T17:07:10.640Z,3.05
2022-07-29T17:09:37.250Z,2.38
2022-07-29T17:12:04.014Z,2.88
2022-07-29T17:14:31.028Z,3.33
2022-07-29T17:17:01.429Z,3.80
2022-07-29T17:19:30.257Z,3.95
2022-07-29T17:22:03.556Z,3.70
2022-07-29T17:24:35.728Z,3.65
2022-07-29T17:27:02.151Z,4.15
2022-07-29T17:29:28.569Z,3.58
2022-07-29T17:31:55.025Z,3.55
2022-07-29T17:34:21.473Z,2.90
2022-07-29T17:36:48.256Z,2.55
2022-07-29T17:39:14.664Z,3.42
2022-07-29T17:41:41.150Z,2.78
2022-07-29T17:44:09.263Z,2.35
2022-07-29T17:46:35.783Z,2.53
2022-07-29T17:49:02.430Z,2.63
2022-07-29T17:51:28.861Z,2.42
2022-07-29T17:53:55.360Z,3.45
2022-07-29T17:56:22.359Z,2.97
2022-07-29T17:58:48.770Z,2.78
2022-07-29T18:01:15.516Z,2.75
2022-07-29T18:03:42.583Z,2.60
2022-07-29T18:06:10.435Z,2.60
2022-07-29T18:08:37.298Z,2.42
2022-07-29T18:11:03.699Z,2.95
2022-07-29T18:13:30.150Z,2.63
2022-07-29T18:16:00.326Z,2.67
2022-07-29T18:18:27.244Z,2.78
2022-07-29T18:20:53.762Z,2.40
2022-07-29T18:23:20.186Z,2.35
2022-07-29T18:25:46.700Z,2.60
2022-07-29T18:28:13.525Z,2.53
2022-07-29T18:30:39.963Z,2.63
2022-07-29T18:33:23.937Z,2.40
2022-07-29T18:35:51.751Z,3.17
2022-07-29T18:38:18.574Z,3.40
2022-07-29T18:40:45.810Z,3.13
2022-07-29T18:43:13.028Z,2.83
2022-07-29T18:45:39.740Z,2.20
2022-07-29T18:48:08.317Z,3.03
2022-07-29T18:50:39.537Z,2.80
2022-07-29T18:53:06.073Z,2.60
2022-07-29T18:55:32.740Z,2.97
2022-07-29T18:57:59.155Z,2.90
2022-07-29T19:00:26.846Z,2.75
2022-07-29T19:02:53.769Z,3.50
2022-07-29T19:05:20.908Z,2.90
2022-07-29T19:07:47.326Z,2.60
2022-07-29T19:10:13.954Z,2.78
2022-07-29T19:12:40.400Z,3.30
2022-07-29T19:15:07.952Z,2.40
2022-07-29T19:17:34.429Z,2.13
2022-07-29T19:20:00.875Z,2.65
2022-07-29T19:22:27.700Z,3.08
2022-07-29T19:24:54.115Z,2.92
2022-07-29T19:27:20.515Z,2.60
2022-07-29T19:29:46.929Z,2.80
2022-07-29T19:32:14.421Z,3.10
2022-07-29T19:35:10.283Z,2.75
2022-07-29T19:37:37.242Z,3.38
2022-07-29T19:40:04.221Z,3.13
2022-07-29T19:42:30.631Z,2.70
2022-07-29T19:44:57.053Z,2.70
2022-07-29T19:47:23.466Z,2.70
2022-07-29T19:49:49.931Z,3.83
2022-07-29T19:52:16.389Z,3.20
2022-07-29T19:54:43.040Z,3.47
2022-07-29T19:57:09.663Z,2.70
2022-07-29T19:59:36.087Z,2.50
2022-07-29T20:02:02.649Z,2.90
2022-07-29T20:04:29.382Z,2.65
2022-07-29T20:07:01.206Z,3.28
2022-07-29T20:09:28.180Z,4.78
2022-07-29T20:11:54.648Z,2.95
2022-07-29T20:14:21.353Z,3.03
2022-07-29T20:16:47.794Z,2.72
2022-07-29T20:19:14.234Z,2.97
2022-07-29T20:21:40.623Z,2.80
2022-07-29T20:24:07.524Z,3.20
2022-07-29T20:26:34.022Z,2.92
2022-07-29T20:29:00.507Z,3.33
2022-07-29T20:31:27.542Z,3.55
2022-07-29T20:33:53.976Z,3.53
2022-07-29T20:36:20.494Z,3.40
2022-07-29T20:38:46.892Z,3.95
2022-07-29T20:41:14.013Z,3.28
2022-07-29T20:43:40.870Z,4.28
2022-07-29T20:46:07.358Z,3.92
2022-07-29T20:48:33.813Z,4.88
2022-07-29T20:51:00.236Z,3.50
2022-07-29T20:53:26.697Z,3.75
2022-07-29T20:55:53.388Z,3.58
2022-07-29T20:58:19.852Z,3.20
2022-07-29T21:00:46.441Z,4.18
2022-07-29T21:03:13.024Z,3.88
2022-07-29T21:05:43.812Z,3.92
2022-07-29T21:08:11.324Z,3.90
2022-07-29T21:10:37.813Z,3.80
2022-07-29T21:13:04.211Z,3.50
2022-07-29T21:15:30.807Z,4.82
2022-07-29T21:18:02.213Z,4.05
2022-07-29T21:20:29.432Z,4.10
2022-07-29T21:22:56.312Z,3.85
2022-07-29T21:25:23.299Z,4.65
2022-07-29T21:28:08.893Z,4.63
2022-07-29T21:30:35.835Z,4.85
2022-07-29T21:33:03.348Z,4.28
2022-07-29T21:35:35.957Z,5.03
2022-07-29T21:38:16.849Z,4.97
2022-07-29T21:40:44.314Z,4.60
2022-07-29T21:43:10.749Z,5.15
2022-07-29T21:45:37.344Z,5.70
2022-07-29T21:48:04.962Z,5.80
2022-07-29T21:50:31.542Z,4.85
2022-07-29T21:52:57.969Z,5.20
2022-07-29T21:55:26.661Z,5.20
2022-07-29T21:57:54.524Z,5.03
2022-07-29T22:00:21.236Z,5.88
2022-07-29T22:02:48.478Z,5.45
2022-07-29T22:05:14.929Z,5.57
2022-07-29T22:07:55.799Z,5.93
2022-07-29T22:10:24.670Z,5.63
2022-07-29T22:12:54.999Z,4.97
2022-07-29T22:15:21.821Z,5.15
2022-07-29T22:17:48.309Z,5.65
2022-07-29T22:20:14.849Z,5.18
2022-07-29T22:22:41.534Z,5.63
2022-07-29T22:25:08.589Z,5.28
2022-07-29T22:27:35.666Z,5.30
2022-07-29T22:30:02.131Z,5.07
2022-07-29T22:32:28.588Z,5.55
2022-07-29T22:34:55.015Z,5.40
2022-07-29T22:37:21.441Z,6.57
2022-07-29T22:39:47.858Z,6.63
2022-07-29T22:42:14.275Z,7.47
2022-07-29T22:44:40.734Z,6.90
2022-07-29T22:47:07.205Z,6.15
2022-07-29T22:49:33.614Z,6.20
2022-07-29T22:52:00.375Z,6.53
2022-07-29T22:54:26.998Z,5.90
2022-07-29T22:56:53.608Z,5.78
2022-07-29T22:59:20.029Z,6.07
2022-07-29T23:01:46.808Z,6.07
2022-07-29T23:04:13.340Z,5.47
2022-07-29T23:06:39.816Z,6.57
2022-07-29T23:09:06.256Z,5.70
2022-07-29T23:11:32.678Z,5.78
2022-07-29T23:13:59.085Z,5.70
2022-07-29T23:16:26.469Z,6.03
2022-07-29T23:18:53.915Z,6.18
2022-07-29T23:21:20.899Z,5.88
2022-07-29T23:23:48.406Z,6.25
2022-07-29T23:26:16.723Z,6.28
2022-07-29T23:28:46.298Z,6.75
2022-07-29T23:31:13.492Z,6.10
2022-07-29T23:33:40.925Z,6.38
2022-07-29T23:36:07.396Z,7.13
2022-07-29T23:38:33.811Z,6.85
2022-07-29T23:41:01.670Z,6.55
2022-07-29T23:43:28.364Z,6.93
2022-07-29T23:45:55.966Z,6.80
2022-07-29T23:48:24.683Z,6.07
2022-07-29T23:50:51.081Z,6.97
2022-07-29T23:53:17.605Z,6.75
2022-07-29T23:55:44.234Z,7.75
2022-07-29T23:58:10.751Z,7.00
